sensor_id;sensor_type;location;lat;lon;timestamp;P1;durP1;ratioP1;P2;durP2;ratioP2
33740;SDS011;20065;48.380;10.892;2023-09-30T00:01:42;34.43;;;15.07;;
33740;SDS011;20065;48.380;10.892;2023-09-30T00:04:37;39.17;;;16.67;;
33740;SDS011;20065;48.380;10.892;2023-09-30T00:07:24;37.47;;;16.33;;
33740;SDS011;20065;48.380;10.892;2023-09-30T00:10:12;37.70;;;16.00;;
33740;SDS011;20065;48.380;10.892;2023-09-30T00:12:58;37.80;;;16.63;;
33740;SDS011;20065;48.380;10.892;2023-09-30T00:15:46;36.80;;;16.80;;
33740;SDS011;20065;48.380;10.892;2023-09-30T00:18:33;36.23;;;17.00;;
33740;SDS011;20065;48.380;10.892;2023-09-30T00:21:19;37.83;;;17.40;;
33740;SDS011;20065;48.380;10.892;2023-09-30T00:24:05;33.67;;;15.73;;
33740;SDS011;20065;48.380;10.892;2023-09-30T00:26:51;36.37;;;16.90;;
33740;SDS011;20065;48.380;10.892;2023-09-30T00:29:37;37.20;;;16.27;;
33740;SDS011;20065;48.380;10.892;2023-09-30T00:32:23;36.20;;;16.57;;
33740;SDS011;20065;48.380;10.892;2023-09-30T00:35:11;31.60;;;14.90;;
33740;SDS011;20065;48.380;10.892;2023-09-30T00:37:57;36.10;;;16.47;;
33740;SDS011;20065;48.380;10.892;2023-09-30T00:40:47;34.23;;;16.83;;
33740;SDS011;20065;48.380;10.892;2023-09-30T00:43:33;39.20;;;16.33;;
33740;SDS011;20065;48.380;10.892;2023-09-30T00:46:27;34.80;;;16.57;;
33740;SDS011;20065;48.380;10.892;2023-09-30T00:49:15;37.10;;;17.07;;
33740;SDS011;20065;48.380;10.892;2023-09-30T00:52:03;38.63;;;16.40;;
33740;SDS011;20065;48.380;10.892;2023-09-30T00:54:53;39.10;;;15.90;;
33740;SDS011;20065;48.380;10.892;2023-09-30T00:57:43;31.47;;;14.80;;
33740;SDS011;20065;48.380;10.892;2023-09-30T01:00:33;38.77;;;16.80;;
33740;SDS011;20065;48.380;10.892;2023-09-30T01:03:19;34.00;;;15.30;;
33740;SDS011;20065;48.380;10.892;2023-09-30T01:06:06;41.27;;;15.83;;
33740;SDS011;20065;48.380;10.892;2023-09-30T01:08:53;31.47;;;14.83;;
33740;SDS011;20065;48.380;10.892;2023-09-30T01:11:40;31.23;;;14.50;;
33740;SDS011;20065;48.380;10.892;2023-09-30T01:14:32;35.37;;;15.30;;
33740;SDS011;20065;48.380;10.892;2023-09-30T01:17:28;37.07;;;15.00;;
33740;SDS011;20065;48.380;10.892;2023-09-30T01:20:15;35.07;;;15.43;;
33740;SDS011;20065;48.380;10.892;2023-09-30T01:23:08;36.03;;;15.83;;
33740;SDS011;20065;48.380;10.892;2023-09-30T01:26:16;37.77;;;17.73;;
33740;SDS011;20065;48.380;10.892;2023-09-30T01:29:03;39.87;;;17.60;;
33740;SDS011;20065;48.380;10.892;2023-09-30T01:31:49;38.13;;;16.13;;
33740;SDS011;20065;48.380;10.892;2023-09-30T01:34:38;32.27;;;14.53;;
33740;SDS011;20065;48.380;10.892;2023-09-30T01:37:26;38.10;;;16.93;;
33740;SDS011;20065;48.380;10.892;2023-09-30T01:40:13;36.90;;;16.30;;
33740;SDS011;20065;48.380;10.892;2023-09-30T01:43:00;30.83;;;14.23;;
33740;SDS011;20065;48.380;10.892;2023-09-30T01:45:46;42.17;;;15.90;;
33740;SDS011;20065;48.380;10.892;2023-09-30T01:48:33;36.43;;;14.63;;
33740;SDS011;20065;48.380;10.892;2023-09-30T01:51:20;36.40;;;15.50;;
33740;SDS011;20065;48.380;10.892;2023-09-30T01:54:07;37.70;;;16.50;;
33740;SDS011;20065;48.380;10.892;2023-09-30T01:56:54;32.80;;;16.07;;
33740;SDS011;20065;48.380;10.892;2023-09-30T01:59:40;32.53;;;14.90;;
33740;SDS011;20065;48.380;10.892;2023-09-30T02:02:26;34.17;;;16.23;;
33740;SDS011;20065;48.380;10.892;2023-09-30T02:05:13;39.10;;;16.37;;
33740;SDS011;20065;48.380;10.892;2023-09-30T02:07:59;38.63;;;15.47;;
33740;SDS011;20065;48.380;10.892;2023-09-30T02:10:45;37.57;;;16.40;;
33740;SDS011;20065;48.380;10.892;2023-09-30T02:13:33;36.90;;;14.70;;
33740;SDS011;20065;48.380;10.892;2023-09-30T02:16:20;40.70;;;18.30;;
33740;SDS011;20065;48.380;10.892;2023-09-30T02:19:08;34.70;;;16.23;;
33740;SDS011;20065;48.380;10.892;2023-09-30T02:21:56;39.50;;;16.50;;
33740;SDS011;20065;48.380;10.892;2023-09-30T02:24:42;40.60;;;16.03;;
33740;SDS011;20065;48.380;10.892;2023-09-30T02:27:28;33.50;;;15.50;;
33740;SDS011;20065;48.380;10.892;2023-09-30T02:30:14;34.67;;;15.30;;
33740;SDS011;20065;48.380;10.892;2023-09-30T02:33:02;33.30;;;14.90;;
33740;SDS011;20065;48.380;10.892;2023-09-30T02:35:49;34.03;;;15.53;;
33740;SDS011;20065;48.380;10.892;2023-09-30T02:38:35;34.07;;;16.07;;
33740;SDS011;20065;48.380;10.892;2023-09-30T02:41:23;33.73;;;16.70;;
33740;SDS011;20065;48.380;10.892;2023-09-30T02:44:09;30.97;;;14.70;;
33740;SDS011;20065;48.380;10.892;2023-09-30T02:46:55;30.80;;;14.97;;
33740;SDS011;20065;48.380;10.892;2023-09-30T02:49:41;33.00;;;15.63;;
33740;SDS011;20065;48.380;10.892;2023-09-30T02:52:27;35.00;;;15.80;;
33740;SDS011;20065;48.380;10.892;2023-09-30T02:55:14;34.20;;;15.83;;
33740;SDS011;20065;48.380;10.892;2023-09-30T02:58:02;34.33;;;15.90;;
33740;SDS011;20065;48.380;10.892;2023-09-30T03:00:49;35.47;;;15.13;;
33740;SDS011;20065;48.380;10.892;2023-09-30T03:03:35;31.77;;;15.30;;
33740;SDS011;20065;48.380;10.892;2023-09-30T03:06:24;35.43;;;15.40;;
33740;SDS011;20065;48.380;10.892;2023-09-30T03:09:10;34.73;;;15.70;;
33740;SDS011;20065;48.380;10.892;2023-09-30T03:12:00;32.40;;;14.63;;
33740;SDS011;20065;48.380;10.892;2023-09-30T03:14:46;33.90;;;14.63;;
33740;SDS011;20065;48.380;10.892;2023-09-30T03:17:33;31.43;;;14.30;;
33740;SDS011;20065;48.380;10.892;2023-09-30T03:20:19;33.63;;;14.80;;
33740;SDS011;20065;48.380;10.892;2023-09-30T03:23:06;31.10;;;13.90;;
33740;SDS011;20065;48.380;10.892;2023-09-30T03:25:55;34.80;;;15.33;;
33740;SDS011;20065;48.380;10.892;2023-09-30T03:28:44;36.43;;;14.50;;
33740;SDS011;20065;48.380;10.892;2023-09-30T03:31:31;32.07;;;13.90;;
33740;SDS011;20065;48.380;10.892;2023-09-30T03:34:17;31.27;;;12.83;;
33740;SDS011;20065;48.380;10.892;2023-09-30T03:37:05;30.00;;;13.67;;
33740;SDS011;20065;48.380;10.892;2023-09-30T03:39:55;30.20;;;15.03;;
33740;SDS011;20065;48.380;10.892;2023-09-30T03:42:41;30.60;;;13.30;;
33740;SDS011;20065;48.380;10.892;2023-09-30T03:45:28;32.30;;;13.63;;
33740;SDS011;20065;48.380;10.892;2023-09-30T03:48:14;31.53;;;14.47;;
33740;SDS011;20065;48.380;10.892;2023-09-30T03:51:07;30.80;;;12.93;;
33740;SDS011;20065;48.380;10.892;2023-09-30T03:54:00;29.37;;;13.53;;
33740;SDS011;20065;48.380;10.892;2023-09-30T03:56:48;33.00;;;13.37;;
33740;SDS011;20065;48.380;10.892;2023-09-30T03:59:34;31.03;;;13.40;;
33740;SDS011;20065;48.380;10.892;2023-09-30T04:02:20;29.53;;;12.77;;
33740;SDS011;20065;48.380;10.892;2023-09-30T04:05:06;28.70;;;12.70;;
33740;SDS011;20065;48.380;10.892;2023-09-30T04:07:53;27.10;;;12.87;;
33740;SDS011;20065;48.380;10.892;2023-09-30T04:10:39;29.07;;;13.20;;
33740;SDS011;20065;48.380;10.892;2023-09-30T04:13:25;30.30;;;13.30;;
33740;SDS011;20065;48.380;10.892;2023-09-30T04:16:11;26.83;;;11.70;;
33740;SDS011;20065;48.380;10.892;2023-09-30T04:18:57;27.80;;;12.03;;
33740;SDS011;20065;48.380;10.892;2023-09-30T04:21:43;27.83;;;12.97;;
33740;SDS011;20065;48.380;10.892;2023-09-30T04:24:29;28.23;;;12.57;;
33740;SDS011;20065;48.380;10.892;2023-09-30T04:27:16;24.77;;;11.50;;
33740;SDS011;20065;48.380;10.892;2023-09-30T04:30:02;30.47;;;13.07;;
33740;SDS011;20065;48.380;10.892;2023-09-30T04:32:54;25.63;;;11.30;;
33740;SDS011;20065;48.380;10.892;2023-09-30T04:35:40;27.17;;;12.10;;
33740;SDS011;20065;48.380;10.892;2023-09-30T04:38:26;26.80;;;13.37;;
33740;SDS011;20065;48.380;10.892;2023-09-30T04:41:12;23.57;;;11.13;;
33740;SDS011;20065;48.380;10.892;2023-09-30T04:43:59;28.97;;;12.47;;
33740;SDS011;20065;48.380;10.892;2023-09-30T04:46:45;26.57;;;11.40;;
33740;SDS011;20065;48.380;10.892;2023-09-30T04:49:31;33.30;;;13.37;;
33740;SDS011;20065;48.380;10.892;2023-09-30T04:52:18;27.73;;;12.47;;
33740;SDS011;20065;48.380;10.892;2023-09-30T04:55:04;26.93;;;11.73;;
33740;SDS011;20065;48.380;10.892;2023-09-30T04:57:50;32.80;;;12.27;;
33740;SDS011;20065;48.380;10.892;2023-09-30T05:00:36;26.57;;;11.10;;
33740;SDS011;20065;48.380;10.892;2023-09-30T05:03:22;25.70;;;11.97;;
33740;SDS011;20065;48.380;10.892;2023-09-30T05:06:11;25.87;;;12.27;;
33740;SDS011;20065;48.380;10.892;2023-09-30T05:08:57;27.13;;;11.40;;
33740;SDS011;20065;48.380;10.892;2023-09-30T05:11:44;26.23;;;12.20;;
33740;SDS011;20065;48.380;10.892;2023-09-30T05:14:31;29.20;;;11.90;;
33740;SDS011;20065;48.380;10.892;2023-09-30T05:17:17;24.97;;;10.60;;
33740;SDS011;20065;48.380;10.892;2023-09-30T05:20:03;28.17;;;11.90;;
33740;SDS011;20065;48.380;10.892;2023-09-30T05:22:52;23.57;;;11.17;;
33740;SDS011;20065;48.380;10.892;2023-09-30T05:25:38;27.10;;;12.13;;
33740;SDS011;20065;48.380;10.892;2023-09-30T05:28:25;28.27;;;12.30;;
33740;SDS011;20065;48.380;10.892;2023-09-30T05:31:13;30.70;;;12.63;;
33740;SDS011;20065;48.380;10.892;2023-09-30T05:33:59;25.77;;;10.87;;
33740;SDS011;20065;48.380;10.892;2023-09-30T05:36:49;22.20;;;10.60;;
33740;SDS011;20065;48.380;10.892;2023-09-30T05:39:37;28.63;;;12.07;;
33740;SDS011;20065;48.380;10.892;2023-09-30T05:42:23;24.97;;;10.67;;
33740;SDS011;20065;48.380;10.892;2023-09-30T05:45:10;23.80;;;10.93;;
33740;SDS011;20065;48.380;10.892;2023-09-30T05:47:58;27.37;;;12.60;;
33740;SDS011;20065;48.380;10.892;2023-09-30T05:50:48;26.83;;;10.23;;
33740;SDS011;20065;48.380;10.892;2023-09-30T05:53:34;25.13;;;10.23;;
33740;SDS011;20065;48.380;10.892;2023-09-30T05:56:21;22.00;;;10.60;;
33740;SDS011;20065;48.380;10.892;2023-09-30T05:59:08;23.20;;;10.20;;
33740;SDS011;20065;48.380;10.892;2023-09-30T06:01:54;21.33;;;9.83;;
33740;SDS011;20065;48.380;10.892;2023-09-30T06:04:41;20.50;;;9.30;;
33740;SDS011;20065;48.380;10.892;2023-09-30T06:07:27;19.50;;;8.23;;
33740;SDS011;20065;48.380;10.892;2023-09-30T06:10:13;18.60;;;7.77;;
33740;SDS011;20065;48.380;10.892;2023-09-30T06:13:04;20.30;;;8.27;;
33740;SDS011;20065;48.380;10.892;2023-09-30T06:15:51;19.10;;;8.10;;
33740;SDS011;20065;48.380;10.892;2023-09-30T06:18:37;19.30;;;8.23;;
33740;SDS011;20065;48.380;10.892;2023-09-30T06:21:24;17.83;;;8.50;;
33740;SDS011;20065;48.380;10.892;2023-09-30T06:24:14;18.73;;;8.37;;
33740;SDS011;20065;48.380;10.892;2023-09-30T06:27:01;17.80;;;8.37;;
33740;SDS011;20065;48.380;10.892;2023-09-30T06:29:47;17.70;;;7.83;;
33740;SDS011;20065;48.380;10.892;2023-09-30T06:32:34;20.70;;;8.70;;
33740;SDS011;20065;48.380;10.892;2023-09-30T06:35:21;23.70;;;8.17;;
33740;SDS011;20065;48.380;10.892;2023-09-30T06:38:09;23.67;;;9.77;;
33740;SDS011;20065;48.380;10.892;2023-09-30T06:40:55;20.90;;;9.07;;
33740;SDS011;20065;48.380;10.892;2023-09-30T06:43:42;17.80;;;8.63;;
33740;SDS011;20065;48.380;10.892;2023-09-30T06:46:28;18.17;;;8.73;;
33740;SDS011;20065;48.380;10.892;2023-09-30T06:49:15;20.30;;;9.30;;
33740;SDS011;20065;48.380;10.892;2023-09-30T06:52:01;22.97;;;8.70;;
33740;SDS011;20065;48.380;10.892;2023-09-30T06:54:50;17.83;;;8.27;;
33740;SDS011;20065;48.380;10.892;2023-09-30T06:57:37;16.37;;;7.47;;
33740;SDS011;20065;48.380;10.892;2023-09-30T07:00:26;17.57;;;8.10;;
33740;SDS011;20065;48.380;10.892;2023-09-30T07:03:12;18.30;;;7.53;;
33740;SDS011;20065;48.380;10.892;2023-09-30T07:06:00;27.10;;;9.27;;
33740;SDS011;20065;48.380;10.892;2023-09-30T07:08:47;15.10;;;7.23;;
33740;SDS011;20065;48.380;10.892;2023-09-30T07:11:33;19.30;;;8.73;;
33740;SDS011;20065;48.380;10.892;2023-09-30T07:14:19;18.00;;;7.57;;
33740;SDS011;20065;48.380;10.892;2023-09-30T07:17:05;16.13;;;6.97;;
33740;SDS011;20065;48.380;10.892;2023-09-30T07:19:52;14.63;;;6.87;;
33740;SDS011;20065;48.380;10.892;2023-09-30T07:22:38;17.40;;;7.63;;
33740;SDS011;20065;48.380;10.892;2023-09-30T07:25:24;12.90;;;6.90;;
33740;SDS011;20065;48.380;10.892;2023-09-30T07:28:10;16.37;;;6.90;;
33740;SDS011;20065;48.380;10.892;2023-09-30T07:30:57;13.13;;;6.00;;
33740;SDS011;20065;48.380;10.892;2023-09-30T07:33:43;13.67;;;6.37;;
33740;SDS011;20065;48.380;10.892;2023-09-30T07:36:29;11.57;;;5.73;;
33740;SDS011;20065;48.380;10.892;2023-09-30T07:39:15;12.87;;;6.07;;
33740;SDS011;20065;48.380;10.892;2023-09-30T07:42:02;12.27;;;6.30;;
33740;SDS011;20065;48.380;10.892;2023-09-30T07:44:49;13.40;;;5.53;;
33740;SDS011;20065;48.380;10.892;2023-09-30T07:47:35;11.10;;;5.63;;
33740;SDS011;20065;48.380;10.892;2023-09-30T07:50:22;12.63;;;5.70;;
33740;SDS011;20065;48.380;10.892;2023-09-30T07:53:08;13.63;;;5.50;;
33740;SDS011;20065;48.380;10.892;2023-09-30T07:55:54;14.80;;;6.10;;
33740;SDS011;20065;48.380;10.892;2023-09-30T07:58:40;12.87;;;5.50;;
33740;SDS011;20065;48.380;10.892;2023-09-30T08:01:27;13.57;;;5.87;;
33740;SDS011;20065;48.380;10.892;2023-09-30T08:04:14;14.70;;;6.80;;
33740;SDS011;20065;48.380;10.892;2023-09-30T08:07:00;12.97;;;5.70;;
33740;SDS011;20065;48.380;10.892;2023-09-30T08:09:47;10.03;;;5.63;;
33740;SDS011;20065;48.380;10.892;2023-09-30T08:12:33;12.20;;;5.20;;
33740;SDS011;20065;48.380;10.892;2023-09-30T08:15:19;10.70;;;5.50;;
33740;SDS011;20065;48.380;10.892;2023-09-30T08:18:06;14.53;;;5.60;;
33740;SDS011;20065;48.380;10.892;2023-09-30T08:20:54;10.63;;;5.00;;
33740;SDS011;20065;48.380;10.892;2023-09-30T08:23:40;11.10;;;4.47;;
33740;SDS011;20065;48.380;10.892;2023-09-30T08:26:26;9.33;;;4.03;;
33740;SDS011;20065;48.380;10.892;2023-09-30T08:29:12;9.87;;;4.67;;
33740;SDS011;20065;48.380;10.892;2023-09-30T08:31:58;11.50;;;5.67;;
33740;SDS011;20065;48.380;10.892;2023-09-30T08:34:44;8.60;;;4.20;;
33740;SDS011;20065;48.380;10.892;2023-09-30T08:37:31;10.20;;;5.20;;
33740;SDS011;20065;48.380;10.892;2023-09-30T08:40:20;10.90;;;5.57;;
33740;SDS011;20065;48.380;10.892;2023-09-30T08:43:07;8.57;;;4.30;;
33740;SDS011;20065;48.380;10.892;2023-09-30T08:45:58;13.10;;;5.70;;
33740;SDS011;20065;48.380;10.892;2023-09-30T08:48:48;12.90;;;5.00;;
33740;SDS011;20065;48.380;10.892;2023-09-30T08:51:46;10.40;;;5.10;;
33740;SDS011;20065;48.380;10.892;2023-09-30T08:54:34;13.90;;;5.80;;
33740;SDS011;20065;48.380;10.892;2023-09-30T08:57:20;10.20;;;5.13;;
33740;SDS011;20065;48.380;10.892;2023-09-30T09:00:07;10.17;;;4.70;;
33740;SDS011;20065;48.380;10.892;2023-09-30T09:02:58;12.20;;;4.93;;
33740;SDS011;20065;48.380;10.892;2023-09-30T09:05:44;10.57;;;4.40;;
33740;SDS011;20065;48.380;10.892;2023-09-30T09:08:34;9.20;;;4.20;;
33740;SDS011;20065;48.380;10.892;2023-09-30T09:11:21;10.03;;;5.23;;
33740;SDS011;20065;48.380;10.892;2023-09-30T09:14:09;9.23;;;4.77;;
33740;SDS011;20065;48.380;10.892;2023-09-30T09:16:56;12.07;;;5.70;;
33740;SDS011;20065;48.380;10.892;2023-09-30T09:19:42;10.40;;;5.30;;
33740;SDS011;20065;48.380;10.892;2023-09-30T09:22:47;15.50;;;5.20;;
33740;SDS011;20065;48.380;10.892;2023-09-30T09:25:39;11.63;;;4.83;;
33740;SDS011;20065;48.380;10.892;2023-09-30T09:28:33;9.63;;;4.87;;
33740;SDS011;20065;48.380;10.892;2023-09-30T09:31:22;9.63;;;4.50;;
33740;SDS011;20065;48.380;10.892;2023-09-30T09:34:14;9.67;;;4.80;;
33740;SDS011;20065;48.380;10.892;2023-09-30T09:37:00;12.13;;;4.43;;
33740;SDS011;20065;48.380;10.892;2023-09-30T09:39:59;10.70;;;5.27;;
33740;SDS011;20065;48.380;10.892;2023-09-30T09:42:45;8.77;;;4.73;;
33740;SDS011;20065;48.380;10.892;2023-09-30T09:45:35;12.80;;;5.57;;
33740;SDS011;20065;48.380;10.892;2023-09-30T09:48:26;8.87;;;4.60;;
33740;SDS011;20065;48.380;10.892;2023-09-30T09:51:13;9.97;;;4.60;;
33740;SDS011;20065;48.380;10.892;2023-09-30T09:54:00;10.67;;;4.93;;
33740;SDS011;20065;48.380;10.892;2023-09-30T09:56:49;9.87;;;4.97;;
33740;SDS011;20065;48.380;10.892;2023-09-30T09:59:38;12.77;;;5.10;;
33740;SDS011;20065;48.380;10.892;2023-09-30T10:02:25;12.73;;;5.57;;
33740;SDS011;20065;48.380;10.892;2023-09-30T10:05:14;13.20;;;5.10;;
33740;SDS011;20065;48.380;10.892;2023-09-30T10:08:02;11.37;;;5.27;;
33740;SDS011;20065;48.380;10.892;2023-09-30T10:10:51;12.23;;;5.63;;
33740;SDS011;20065;48.380;10.892;2023-09-30T10:13:50;11.20;;;5.60;;
33740;SDS011;20065;48.380;10.892;2023-09-30T10:19:23;11.23;;;4.87;;
33740;SDS011;20065;48.380;10.892;2023-09-30T10:25:32;8.27;;;4.90;;
33740;SDS011;20065;48.380;10.892;2023-09-30T10:31:22;11.50;;;5.50;;
33740;SDS011;20065;48.380;10.892;2023-09-30T10:36:59;12.50;;;4.77;;
33740;SDS011;20065;48.380;10.892;2023-09-30T10:40:28;11.43;;;5.60;;
33740;SDS011;20065;48.380;10.892;2023-09-30T10:43:36;11.83;;;5.20;;
33740;SDS011;20065;48.380;10.892;2023-09-30T10:52:08;9.97;;;5.23;;
33740;SDS011;20065;48.380;10.892;2023-09-30T10:55:00;16.27;;;5.20;;
33740;SDS011;20065;48.380;10.892;2023-09-30T10:57:50;14.67;;;5.23;;
33740;SDS011;20065;48.380;10.892;2023-09-30T11:00:37;13.70;;;5.83;;
33740;SDS011;20065;48.380;10.892;2023-09-30T11:03:23;14.20;;;6.17;;
33740;SDS011;20065;48.380;10.892;2023-09-30T11:06:15;13.10;;;6.37;;
33740;SDS011;20065;48.380;10.892;2023-09-30T11:09:05;15.80;;;7.00;;
33740;SDS011;20065;48.380;10.892;2023-09-30T11:11:58;13.70;;;6.43;;
33740;SDS011;20065;48.380;10.892;2023-09-30T11:14:44;15.70;;;7.30;;
33740;SDS011;20065;48.380;10.892;2023-09-30T11:17:30;16.77;;;7.80;;
33740;SDS011;20065;48.380;10.892;2023-09-30T11:20:16;15.73;;;7.10;;
33740;SDS011;20065;48.380;10.892;2023-09-30T11:23:06;17.80;;;7.30;;
33740;SDS011;20065;48.380;10.892;2023-09-30T11:25:53;17.93;;;7.53;;
33740;SDS011;20065;48.380;10.892;2023-09-30T11:28:40;18.03;;;7.37;;
33740;SDS011;20065;48.380;10.892;2023-09-30T11:31:28;14.67;;;6.57;;
33740;SDS011;20065;48.380;10.892;2023-09-30T11:34:19;13.30;;;6.20;;
33740;SDS011;20065;48.380;10.892;2023-09-30T11:37:05;12.37;;;6.17;;
33740;SDS011;20065;48.380;10.892;2023-09-30T11:39:51;15.93;;;7.07;;
33740;SDS011;20065;48.380;10.892;2023-09-30T11:42:40;15.63;;;7.60;;
33740;SDS011;20065;48.380;10.892;2023-09-30T11:45:27;16.33;;;8.33;;
33740;SDS011;20065;48.380;10.892;2023-09-30T11:48:20;18.10;;;8.90;;
33740;SDS011;20065;48.380;10.892;2023-09-30T11:51:06;21.67;;;12.20;;
33740;SDS011;20065;48.380;10.892;2023-09-30T11:53:53;16.53;;;7.93;;
33740;SDS011;20065;48.380;10.892;2023-09-30T11:56:40;19.07;;;9.20;;
33740;SDS011;20065;48.380;10.892;2023-09-30T11:59:26;14.90;;;7.97;;
33740;SDS011;20065;48.380;10.892;2023-09-30T12:02:15;16.73;;;7.77;;
33740;SDS011;20065;48.380;10.892;2023-09-30T12:05:04;19.87;;;7.67;;
33740;SDS011;20065;48.380;10.892;2023-09-30T12:07:59;21.37;;;9.40;;
33740;SDS011;20065;48.380;10.892;2023-09-30T12:10:45;14.77;;;7.50;;
33740;SDS011;20065;48.380;10.892;2023-09-30T12:13:31;16.50;;;7.67;;
33740;SDS011;20065;48.380;10.892;2023-09-30T12:16:17;14.40;;;7.13;;
33740;SDS011;20065;48.380;10.892;2023-09-30T12:19:04;14.97;;;7.10;;
33740;SDS011;20065;48.380;10.892;2023-09-30T12:21:54;16.83;;;7.47;;
33740;SDS011;20065;48.380;10.892;2023-09-30T12:24:40;16.53;;;8.57;;
33740;SDS011;20065;48.380;10.892;2023-09-30T12:27:26;16.53;;;8.00;;
33740;SDS011;20065;48.380;10.892;2023-09-30T12:30:13;18.10;;;8.67;;
33740;SDS011;20065;48.380;10.892;2023-09-30T12:33:02;17.93;;;8.70;;
33740;SDS011;20065;48.380;10.892;2023-09-30T12:35:48;17.30;;;7.70;;
33740;SDS011;20065;48.380;10.892;2023-09-30T12:38:35;23.20;;;9.13;;
33740;SDS011;20065;48.380;10.892;2023-09-30T12:41:21;20.07;;;8.93;;
33740;SDS011;20065;48.380;10.892;2023-09-30T12:44:07;15.13;;;7.07;;
33740;SDS011;20065;48.380;10.892;2023-09-30T12:46:54;13.90;;;7.30;;
33740;SDS011;20065;48.380;10.892;2023-09-30T12:49:40;15.13;;;7.30;;
33740;SDS011;20065;48.380;10.892;2023-09-30T12:52:27;17.57;;;7.70;;
33740;SDS011;20065;48.380;10.892;2023-09-30T12:55:13;14.30;;;7.13;;
33740;SDS011;20065;48.380;10.892;2023-09-30T12:57:59;12.17;;;6.90;;
33740;SDS011;20065;48.380;10.892;2023-09-30T13:00:46;16.27;;;7.37;;
33740;SDS011;20065;48.380;10.892;2023-09-30T13:03:32;16.00;;;7.63;;
33740;SDS011;20065;48.380;10.892;2023-09-30T13:06:18;15.70;;;8.00;;
33740;SDS011;20065;48.380;10.892;2023-09-30T13:09:05;18.37;;;8.30;;
33740;SDS011;20065;48.380;10.892;2023-09-30T13:11:51;14.40;;;7.80;;
33740;SDS011;20065;48.380;10.892;2023-09-30T13:14:37;16.80;;;7.90;;
33740;SDS011;20065;48.380;10.892;2023-09-30T13:17:24;15.73;;;7.60;;
33740;SDS011;20065;48.380;10.892;2023-09-30T13:20:10;19.30;;;8.53;;
33740;SDS011;20065;48.380;10.892;2023-09-30T13:22:57;16.40;;;8.57;;
33740;SDS011;20065;48.380;10.892;2023-09-30T13:25:44;16.23;;;8.33;;
33740;SDS011;20065;48.380;10.892;2023-09-30T13:28:30;16.50;;;7.93;;
33740;SDS011;20065;48.380;10.892;2023-09-30T13:31:16;15.77;;;8.47;;
33740;SDS011;20065;48.380;10.892;2023-09-30T13:34:03;22.03;;;9.97;;
33740;SDS011;20065;48.380;10.892;2023-09-30T13:36:50;16.77;;;8.63;;
33740;SDS011;20065;48.380;10.892;2023-09-30T13:39:36;19.20;;;9.27;;
33740;SDS011;20065;48.380;10.892;2023-09-30T13:42:23;19.93;;;8.30;;
33740;SDS011;20065;48.380;10.892;2023-09-30T13:45:10;20.20;;;8.57;;
33740;SDS011;20065;48.380;10.892;2023-09-30T13:47:56;20.63;;;8.67;;
33740;SDS011;20065;48.380;10.892;2023-09-30T13:50:42;23.77;;;9.17;;
33740;SDS011;20065;48.380;10.892;2023-09-30T13:53:29;13.57;;;7.57;;
33740;SDS011;20065;48.380;10.892;2023-09-30T13:56:15;19.60;;;9.03;;
33740;SDS011;20065;48.380;10.892;2023-09-30T13:59:01;20.13;;;9.30;;
33740;SDS011;20065;48.380;10.892;2023-09-30T14:01:47;18.80;;;8.77;;
33740;SDS011;20065;48.380;10.892;2023-09-30T14:04:33;20.00;;;8.80;;
33740;SDS011;20065;48.380;10.892;2023-09-30T14:07:22;18.20;;;9.17;;
33740;SDS011;20065;48.380;10.892;2023-09-30T14:10:09;17.97;;;8.97;;
33740;SDS011;20065;48.380;10.892;2023-09-30T14:12:58;22.57;;;10.40;;
33740;SDS011;20065;48.380;10.892;2023-09-30T14:15:44;21.70;;;8.83;;
33740;SDS011;20065;48.380;10.892;2023-09-30T14:18:32;17.30;;;9.43;;
33740;SDS011;20065;48.380;10.892;2023-09-30T14:21:19;20.00;;;9.57;;
33740;SDS011;20065;48.380;10.892;2023-09-30T14:24:05;20.80;;;9.20;;
33740;SDS011;20065;48.380;10.892;2023-09-30T14:26:52;21.27;;;10.10;;
33740;SDS011;20065;48.380;10.892;2023-09-30T14:29:38;16.90;;;7.90;;
33740;SDS011;20065;48.380;10.892;2023-09-30T14:32:24;18.43;;;8.63;;
33740;SDS011;20065;48.380;10.892;2023-09-30T14:35:10;22.33;;;8.70;;
33740;SDS011;20065;48.380;10.892;2023-09-30T14:37:57;18.10;;;8.37;;
33740;SDS011;20065;48.380;10.892;2023-09-30T14:40:43;19.43;;;8.30;;
33740;SDS011;20065;48.380;10.892;2023-09-30T14:43:29;17.47;;;8.57;;
33740;SDS011;20065;48.380;10.892;2023-09-30T14:46:15;16.70;;;8.63;;
33740;SDS011;20065;48.380;10.892;2023-09-30T14:49:02;19.10;;;9.43;;
33740;SDS011;20065;48.380;10.892;2023-09-30T14:51:48;16.30;;;8.27;;
33740;SDS011;20065;48.380;10.892;2023-09-30T14:54:34;19.47;;;8.87;;
33740;SDS011;20065;48.380;10.892;2023-09-30T14:57:21;16.27;;;8.50;;
33740;SDS011;20065;48.380;10.892;2023-09-30T15:00:08;19.80;;;8.97;;
33740;SDS011;20065;48.380;10.892;2023-09-30T15:02:56;15.80;;;8.20;;
33740;SDS011;20065;48.380;10.892;2023-09-30T15:05:42;17.43;;;9.20;;
33740;SDS011;20065;48.380;10.892;2023-09-30T15:08:28;18.77;;;8.73;;
33740;SDS011;20065;48.380;10.892;2023-09-30T15:11:18;21.40;;;8.70;;
33740;SDS011;20065;48.380;10.892;2023-09-30T15:14:04;19.80;;;8.47;;
33740;SDS011;20065;48.380;10.892;2023-09-30T15:16:53;17.60;;;9.30;;
33740;SDS011;20065;48.380;10.892;2023-09-30T15:19:40;19.77;;;8.27;;
33740;SDS011;20065;48.380;10.892;2023-09-30T15:22:26;20.37;;;10.07;;
33740;SDS011;20065;48.380;10.892;2023-09-30T15:25:12;19.63;;;8.50;;
33740;SDS011;20065;48.380;10.892;2023-09-30T15:27:59;19.70;;;8.57;;
33740;SDS011;20065;48.380;10.892;2023-09-30T15:30:45;19.67;;;8.07;;
33740;SDS011;20065;48.380;10.892;2023-09-30T15:33:31;19.20;;;8.97;;
33740;SDS011;20065;48.380;10.892;2023-09-30T15:36:18;17.90;;;8.87;;
33740;SDS011;20065;48.380;10.892;2023-09-30T15:39:04;16.20;;;7.57;;
33740;SDS011;20065;48.380;10.892;2023-09-30T15:41:52;19.47;;;8.30;;
33740;SDS011;20065;48.380;10.892;2023-09-30T15:44:38;20.53;;;8.23;;
33740;SDS011;20065;48.380;10.892;2023-09-30T15:47:25;17.60;;;8.80;;
33740;SDS011;20065;48.380;10.892;2023-09-30T15:50:14;19.27;;;9.00;;
33740;SDS011;20065;48.380;10.892;2023-09-30T15:53:01;18.97;;;9.40;;
33740;SDS011;20065;48.380;10.892;2023-09-30T15:55:47;18.27;;;8.37;;
33740;SDS011;20065;48.380;10.892;2023-09-30T15:58:34;18.10;;;9.20;;
33740;SDS011;20065;48.380;10.892;2023-09-30T16:01:20;14.73;;;7.80;;
33740;SDS011;20065;48.380;10.892;2023-09-30T16:04:06;16.00;;;8.00;;
33740;SDS011;20065;48.380;10.892;2023-09-30T16:06:52;20.17;;;8.50;;
33740;SDS011;20065;48.380;10.892;2023-09-30T16:09:38;21.33;;;9.27;;
33740;SDS011;20065;48.380;10.892;2023-09-30T16:12:24;18.50;;;8.20;;
33740;SDS011;20065;48.380;10.892;2023-09-30T16:15:11;18.70;;;8.37;;
33740;SDS011;20065;48.380;10.892;2023-09-30T16:17:58;18.17;;;8.43;;
33740;SDS011;20065;48.380;10.892;2023-09-30T16:20:44;18.10;;;8.37;;
33740;SDS011;20065;48.380;10.892;2023-09-30T16:23:33;18.70;;;9.07;;
33740;SDS011;20065;48.380;10.892;2023-09-30T16:26:19;18.23;;;9.37;;
33740;SDS011;20065;48.380;10.892;2023-09-30T16:29:06;16.90;;;8.60;;
33740;SDS011;20065;48.380;10.892;2023-09-30T16:31:54;19.30;;;9.30;;